createdAt,value
2022-09-28T00:01:21.432Z,98711.28
2022-09-28T00:04:22.936Z,98699.97
2022-09-28T00:07:24.320Z,98696.59
2022-09-28T00:10:25.733Z,98702.91
2022-09-28T00:13:28.136Z,98710.13
2022-09-28T00:16:32.002Z,98706.66
2022-09-28T00:19:33.863Z,98696.69
2022-09-28T00:22:35.241Z,98682.47
2022-09-28T00:25:36.907Z,98680.00
2022-09-28T00:28:38.278Z,98669.59
2022-09-28T00:31:39.768Z,98660.72
2022-09-28T00:34:45.728Z,98650.75
2022-09-28T00:37:48.760Z,98645.75
2022-09-28T00:40:50.194Z,98651.00
2022-09-28T00:43:52.721Z,98646.59
2022-09-28T00:47:31.818Z,98642.75
2022-09-28T00:50:37.196Z,98639.06
2022-09-28T00:53:41.554Z,98645.75
2022-09-28T00:56:47.743Z,98631.47
2022-09-28T00:59:49.941Z,98626.09
2022-09-28T01:02:51.336Z,98627.31
2022-09-28T01:05:54.871Z,98619.41
2022-09-28T01:09:00.282Z,98610.03
2022-09-28T01:12:02.004Z,98613.47
2022-09-28T01:15:05.467Z,98587.72
2022-09-28T01:18:34.407Z,98583.28
2022-09-28T01:21:53.917Z,98586.84
2022-09-28T01:25:25.058Z,98576.19
2022-09-28T01:28:28.767Z,98581.00
2022-09-28T01:31:33.836Z,98572.16
2022-09-28T01:34:54.378Z,98566.28
2022-09-28T01:38:04.639Z,98567.41
2022-09-28T01:41:07.114Z,98560.16
2022-09-28T01:44:13.882Z,98552.06
2022-09-28T01:47:20.226Z,98553.84
2022-09-28T01:50:25.629Z,98546.69
2022-09-28T01:53:44.830Z,98532.38
2022-09-28T01:57:13.787Z,98521.91
2022-09-28T02:00:19.404Z,98523.16
2022-09-28T02:03:33.200Z,98512.91
2022-09-28T02:06:42.079Z,98515.25
2022-09-28T02:09:48.924Z,98516.94
2022-09-28T02:12:58.024Z,98523.06
2022-09-28T02:16:25.708Z,98523.06
2022-09-28T02:19:30.047Z,98518.41
2022-09-28T02:22:45.609Z,98525.22
2022-09-28T02:25:53.657Z,98519.72
2022-09-28T02:28:56.010Z,98522.56
2022-09-28T02:31:57.568Z,98513.69
2022-09-28T02:34:59.298Z,98513.41
2022-09-28T02:38:00.842Z,98508.78
2022-09-28T02:41:30.906Z,98511.19
2022-09-28T02:44:51.960Z,98507.63
2022-09-28T02:48:07.026Z,98512.16
2022-09-28T02:51:26.102Z,98502.13
2022-09-28T02:54:36.791Z,98491.34
2022-09-28T02:57:53.490Z,98483.03
2022-09-28T03:01:19.783Z,98484.69
2022-09-28T03:04:24.147Z,98494.84
2022-09-28T03:07:37.510Z,98486.91
2022-09-28T03:10:46.392Z,98485.44
2022-09-28T03:13:48.840Z,98491.75
2022-09-28T03:16:51.291Z,98499.25
2022-09-28T03:19:54.245Z,98494.38
2022-09-28T03:23:22.903Z,98491.25
2022-09-28T03:26:17.950Z,98498.41
2022-09-28T03:29:22.628Z,98495.50
2022-09-28T03:32:31.086Z,98489.03
2022-09-28T03:35:33.834Z,98485.66
2022-09-28T03:38:35.198Z,98493.56
2022-09-28T03:41:36.914Z,98485.97
2022-09-28T03:44:38.710Z,98494.34
2022-09-28T03:47:45.399Z,98505.38
2022-09-28T03:50:46.776Z,98497.69
2022-09-28T03:53:48.218Z,98490.81
2022-09-28T03:56:50.158Z,98485.56
2022-09-28T03:59:51.626Z,98485.22
2022-09-28T04:02:53.637Z,98481.56
2022-09-28T04:05:55.173Z,98489.56
2022-09-28T04:08:57.735Z,98483.03
2022-09-28T04:12:04.175Z,98479.22
2022-09-28T04:15:07.636Z,98473.94
2022-09-28T04:18:10.987Z,98491.47
2022-09-28T04:21:31.782Z,98491.13
2022-09-28T04:24:39.612Z,98490.75
2022-09-28T04:28:00.284Z,98486.72
2022-09-28T04:31:02.000Z,98498.34
2022-09-28T04:34:03.438Z,98489.19
2022-09-28T04:37:05.008Z,98497.53
2022-09-28T04:40:07.412Z,98490.53
2022-09-28T04:43:08.975Z,98498.72
2022-09-28T04:46:10.800Z,98509.75
2022-09-28T04:49:18.669Z,98508.44
2022-09-28T04:52:26.637Z,98512.84
2022-09-28T04:55:32.460Z,98498.19
2022-09-28T04:58:37.973Z,98507.25
2022-09-28T05:01:39.879Z,98516.63
2022-09-28T05:05:13.377Z,98518.91
2022-09-28T05:08:50.010Z,98512.38
2022-09-28T05:11:52.978Z,98515.09
2022-09-28T05:14:56.600Z,98520.59
2022-09-28T05:17:57.985Z,98520.25
2022-09-28T05:21:12.932Z,98513.09
2022-09-28T05:24:15.123Z,98519.28
2022-09-28T05:27:20.988Z,98522.91
2022-09-28T05:30:33.382Z,98527.56
2022-09-28T05:33:57.311Z,98530.22
2022-09-28T05:36:59.168Z,98524.78
2022-09-28T05:40:00.725Z,98522.22
2022-09-28T05:43:02.340Z,98517.78
2022-09-28T05:46:05.667Z,98530.44
2022-09-28T05:49:09.315Z,98528.88
2022-09-28T05:52:11.499Z,98534.16
2022-09-28T05:55:13.831Z,98538.28
2022-09-28T05:58:16.902Z,98535.66
2022-09-28T06:01:18.801Z,98533.22
2022-09-28T06:04:20.888Z,98545.84
2022-09-28T06:07:23.791Z,98552.44
2022-09-28T06:10:26.826Z,98547.72
2022-09-28T06:13:32.006Z,98558.97
2022-09-28T06:16:34.778Z,98558.59
2022-09-28T06:19:36.264Z,98561.38
2022-09-28T06:22:55.882Z,98563.41
2022-09-28T06:25:59.065Z,98559.66
2022-09-28T06:29:00.643Z,98560.13
2022-09-28T06:32:02.222Z,98571.69
2022-09-28T06:35:04.024Z,98575.25
2022-09-28T06:38:05.475Z,98568.97
2022-09-28T06:41:07.357Z,98572.22
2022-09-28T06:44:08.930Z,98582.09
2022-09-28T06:47:28.758Z,98583.41
2022-09-28T06:50:47.426Z,98584.88
2022-09-28T06:54:11.199Z,98595.63
2022-09-28T06:57:22.651Z,98601.22
2022-09-28T07:00:24.073Z,98607.22
2022-09-28T07:03:26.367Z,98606.75
2022-09-28T07:06:47.964Z,98613.94
2022-09-28T07:10:09.968Z,98617.31
2022-09-28T07:13:49.941Z,98610.53
2022-09-28T07:17:12.212Z,98614.66
2022-09-28T07:20:19.113Z,98621.88
2022-09-28T07:23:22.628Z,98624.47
2022-09-28T07:26:45.335Z,98639.78
2022-09-28T07:30:07.769Z,98642.88
2022-09-28T07:33:18.897Z,98638.03
2022-09-28T07:36:26.697Z,98647.34
2022-09-28T07:39:28.268Z,98653.88
2022-09-28T07:42:30.763Z,98663.63
2022-09-28T07:45:36.019Z,98668.88
2022-09-28T07:48:39.789Z,98672.22
2022-09-28T07:51:56.497Z,98673.91
2022-09-28T07:55:11.069Z,98683.97
2022-09-28T07:58:32.737Z,98692.66
2022-09-28T08:01:49.366Z,98687.91
2022-09-28T08:04:51.790Z,98696.59
2022-09-28T08:07:53.221Z,98696.59
2022-09-28T08:10:57.218Z,98691.09
2022-09-28T08:14:17.641Z,98692.75
2022-09-28T08:17:50.812Z,98693.50
2022-09-28T08:21:13.249Z,98699.22
2022-09-28T08:24:16.032Z,98701.41
2022-09-28T08:27:18.330Z,98704.94
2022-09-28T08:30:20.003Z,98701.25
2022-09-28T08:33:44.597Z,98703.97
2022-09-28T08:37:05.492Z,98711.25
2022-09-28T08:40:26.026Z,98704.69
2022-09-28T08:43:55.736Z,98715.31
2022-09-28T08:47:33.295Z,98720.06
2022-09-28T08:51:27.582Z,98729.47
2022-09-28T08:54:54.489Z,98729.03
2022-09-28T08:58:09.358Z,98733.28
2022-09-28T09:01:18.899Z,98732.84
2022-09-28T09:04:20.554Z,98732.66
2022-09-28T09:08:04.328Z,98740.56
2022-09-28T09:11:44.244Z,98744.59
2022-09-28T09:15:11.811Z,98741.00
2022-09-28T09:18:36.373Z,98737.81
2022-09-28T09:22:11.429Z,98743.50
2022-09-28T09:25:16.208Z,98744.56
2022-09-28T09:28:29.778Z,98748.16
2022-09-28T09:31:46.293Z,98745.84
2022-09-28T09:35:05.527Z,98753.69
2022-09-28T09:38:58.147Z,98757.28
2022-09-28T09:42:47.914Z,98752.72
2022-09-28T09:46:31.176Z,98743.72
2022-09-28T09:50:11.272Z,98746.44
2022-09-28T09:53:36.091Z,98753.06
2022-09-28T09:56:48.698Z,98753.06
2022-09-28T10:00:14.919Z,98755.41
2022-09-28T10:03:31.637Z,98757.66
2022-09-28T10:06:54.182Z,98755.59
2022-09-28T10:09:58.312Z,98756.28
2022-09-28T10:13:18.262Z,98756.50
2022-09-28T10:16:20.238Z,98762.09
2022-09-28T10:19:35.326Z,98752.34
2022-09-28T10:22:57.772Z,98753.59
2022-09-28T10:26:05.793Z,98761.03
2022-09-28T10:29:17.615Z,98756.63
2022-09-28T10:32:25.197Z,98764.53
2022-09-28T10:35:41.422Z,98767.03
2022-09-28T10:38:47.669Z,98766.41
2022-09-28T10:42:05.300Z,98769.25
2022-09-28T10:45:13.775Z,98765.94
2022-09-28T10:48:20.830Z,98765.38
2022-09-28T10:51:44.076Z,98767.44
2022-09-28T10:54:53.693Z,98762.44
2022-09-28T10:57:56.699Z,98759.97
2022-09-28T11:01:15.029Z,98756.63
2022-09-28T11:04:22.026Z,98752.59
2022-09-28T11:07:33.346Z,98757.44
2022-09-28T11:10:35.615Z,98760.69
2022-09-28T11:13:50.062Z,98763.97
2022-09-28T11:17:16.207Z,98763.03
2022-09-28T11:20:27.354Z,98765.72
2022-09-28T11:23:31.071Z,98762.16
2022-09-28T11:26:43.509Z,98768.53
2022-09-28T11:29:57.531Z,98772.91
2022-09-28T11:33:30.532Z,98777.16
2022-09-28T11:37:24.542Z,98771.75
2022-09-28T11:40:45.338Z,98762.75
2022-09-28T11:44:02.273Z,98771.56
2022-09-28T11:47:19.558Z,98762.31
2022-09-28T11:50:52.032Z,98761.09
2022-09-28T11:54:28.801Z,98753.97
2022-09-28T11:57:36.573Z,98753.78
2022-09-28T12:00:46.090Z,98756.06
2022-09-28T12:04:00.329Z,98750.09
2022-09-28T12:07:24.183Z,98745.28
2022-09-28T12:10:50.586Z,98741.41
2022-09-28T12:14:00.656Z,98743.69
2022-09-28T12:17:20.103Z,98748.38
2022-09-28T12:20:33.313Z,98742.44
2022-09-28T12:23:37.994Z,98756.91
2022-09-28T12:27:05.216Z,98752.09
2022-09-28T12:30:16.493Z,98748.31
2022-09-28T12:33:17.901Z,98752.25
2022-09-28T12:36:43.967Z,98744.00
2022-09-28T12:40:10.521Z,98742.44
2022-09-28T12:43:46.011Z,98742.72
2022-09-28T12:47:05.520Z,98742.22
2022-09-28T12:50:42.731Z,98738.34
2022-09-28T12:53:53.044Z,98739.03
2022-09-28T12:57:25.153Z,98739.75
2022-09-28T13:00:37.232Z,98741.47
2022-09-28T13:03:50.738Z,98742.41
2022-09-28T13:07:03.158Z,98747.16
2022-09-28T13:10:33.706Z,98742.56
2022-09-28T13:13:44.812Z,98743.44
2022-09-28T13:17:32.279Z,98744.16
2022-09-28T13:21:11.677Z,98740.91
2022-09-28T13:24:32.066Z,98736.34
2022-09-28T13:27:38.110Z,98730.22
2022-09-28T13:30:40.548Z,98733.94
2022-09-28T13:33:45.632Z,98734.56
2022-09-28T13:37:09.733Z,98731.31
2022-09-28T13:40:11.481Z,98736.44
2022-09-28T13:43:28.542Z,98732.25
2022-09-28T13:46:38.694Z,98730.44
2022-09-28T13:50:00.329Z,98720.63
2022-09-28T13:53:39.599Z,98727.06
2022-09-28T13:57:02.804Z,98730.66
2022-09-28T14:00:23.129Z,98726.44
2022-09-28T14:03:43.258Z,98732.31
2022-09-28T14:06:55.870Z,98726.53
2022-09-28T14:10:17.997Z,98737.13
2022-09-28T14:13:58.097Z,98740.34
2022-09-28T14:17:19.477Z,98745.53
2022-09-28T14:20:24.886Z,98743.38
2022-09-28T14:23:59.076Z,98750.97
2022-09-28T14:27:27.490Z,98745.41
2022-09-28T14:30:37.962Z,98745.00
2022-09-28T14:33:42.579Z,98746.91
2022-09-28T14:37:07.094Z,98747.84
2022-09-28T14:40:37.768Z,98754.19
2022-09-28T14:43:45.432Z,98759.13
2022-09-28T14:46:47.695Z,98765.94
2022-09-28T14:50:00.275Z,98766.81
2022-09-28T14:53:13.512Z,98770.03
2022-09-28T14:56:16.134Z,98769.66
2022-09-28T14:59:41.646Z,98767.25
2022-09-28T15:02:49.172Z,98767.25
2022-09-28T15:05:50.640Z,98773.66
2022-09-28T15:08:52.187Z,98773.66
2022-09-28T15:12:15.000Z,98777.63
2022-09-28T15:15:26.352Z,98770.88
2022-09-28T15:18:43.740Z,98773.88
2022-09-28T15:21:47.611Z,98775.34
2022-09-28T15:25:02.181Z,98778.94
2022-09-28T15:28:17.925Z,98784.63
2022-09-28T15:31:22.467Z,98784.50
2022-09-28T15:34:47.841Z,98786.31
2022-09-28T15:37:53.318Z,98784.00
2022-09-28T15:40:55.157Z,98784.13
2022-09-28T15:44:24.555Z,98782.31
2022-09-28T15:47:28.287Z,98783.09
2022-09-28T15:50:31.659Z,98790.22
2022-09-28T15:53:33.651Z,98794.72
2022-09-28T15:56:50.808Z,98789.44
2022-09-28T15:59:59.116Z,98797.25
2022-09-28T16:03:06.649Z,98798.69
2022-09-28T16:06:10.335Z,98799.56
2022-09-28T16:09:31.473Z,98801.31
2022-09-28T16:12:53.960Z,98804.44
2022-09-28T16:15:59.836Z,98801.50
2022-09-28T16:19:02.631Z,98802.22
2022-09-28T16:22:07.144Z,98804.97
2022-09-28T16:25:18.251Z,98804.72
2022-09-28T16:28:48.802Z,98801.22
2022-09-28T16:31:52.589Z,98808.88
2022-09-28T16:35:18.856Z,98801.47
2022-09-28T16:38:20.822Z,98811.16
2022-09-28T16:41:27.132Z,98812.84
2022-09-28T16:44:30.589Z,98824.34
2022-09-28T16:47:34.525Z,98824.25
2022-09-28T16:50:35.893Z,98826.53
2022-09-28T16:53:55.880Z,98831.13
2022-09-28T16:56:57.353Z,98841.44
2022-09-28T16:59:58.713Z,98835.19
2022-09-28T17:03:00.109Z,98836.75
2022-09-28T17:06:08.342Z,98836.75
2022-09-28T17:09:12.823Z,98836.56
2022-09-28T17:12:24.313Z,98843.16
2022-09-28T17:15:26.070Z,98848.22
2022-09-28T17:18:27.863Z,98845.25
2022-09-28T17:21:29.246Z,98837.19
2022-09-28T17:24:30.625Z,98849.81
2022-09-28T17:27:32.346Z,98854.38
2022-09-28T17:30:33.789Z,98845.06
2022-09-28T17:33:35.282Z,98853.84
2022-09-28T17:36:37.322Z,98862.66
2022-09-28T17:39:38.687Z,98867.53
2022-09-28T17:42:40.074Z,98867.59
2022-09-28T17:45:41.585Z,98864.41
2022-09-28T17:48:45.988Z,98870.44
2022-09-28T17:51:47.435Z,98876.88
2022-09-28T17:54:48.890Z,98869.06
2022-09-28T17:57:50.695Z,98870.22
2022-09-28T18:00:52.142Z,98868.00
2022-09-28T18:03:53.522Z,98871.16
2022-09-28T18:06:54.938Z,98883.25
2022-09-28T18:09:59.281Z,98880.81
2022-09-28T18:13:00.644Z,98877.34
2022-09-28T18:16:02.891Z,98877.94
2022-09-28T18:19:04.306Z,98879.66
2022-09-28T18:22:05.686Z,98881.50
2022-09-28T18:25:07.525Z,98880.66
2022-09-28T18:28:10.893Z,98885.94
2022-09-28T18:31:14.371Z,98888.38
2022-09-28T18:34:16.022Z,98893.56
2022-09-28T18:37:18.618Z,98885.94
2022-09-28T18:40:20.363Z,98895.00
2022-09-28T18:43:22.459Z,98895.00
2022-09-28T18:46:26.945Z,98899.31
2022-09-28T18:49:30.553Z,98904.72
2022-09-28T18:52:31.929Z,98905.78
2022-09-28T18:55:33.333Z,98900.03
2022-09-28T18:58:36.140Z,98906.94
2022-09-28T19:01:37.997Z,98905.94
2022-09-28T19:04:39.856Z,98914.31
2022-09-28T19:07:41.302Z,98931.75
2022-09-28T19:10:44.487Z,98922.25
2022-09-28T19:13:45.963Z,98927.00
2022-09-28T19:16:47.377Z,98928.50
2022-09-28T19:19:48.762Z,98933.56
2022-09-28T19:22:51.133Z,98930.66
2022-09-28T19:25:52.594Z,98935.78
2022-09-28T19:28:55.747Z,98936.81
2022-09-28T19:31:57.916Z,98936.81
2022-09-28T19:34:59.403Z,98940.41
2022-09-28T19:38:00.826Z,98939.44
2022-09-28T19:41:02.704Z,98941.25
2022-09-28T19:44:07.032Z,98956.53
2022-09-28T19:47:08.749Z,98955.34
2022-09-28T19:50:10.208Z,98958.34
2022-09-28T19:53:12.338Z,98961.16
2022-09-28T19:56:13.739Z,98973.25
2022-09-28T19:59:15.486Z,98967.88
2022-09-28T20:02:16.884Z,98970.88
2022-09-28T20:05:18.861Z,98967.59
2022-09-28T20:08:21.808Z,98973.34
2022-09-28T20:11:23.830Z,98977.88
2022-09-28T20:14:26.543Z,98977.03
2022-09-28T20:17:32.212Z,98968.91
2022-09-28T20:20:33.585Z,98973.25
2022-09-28T20:23:36.128Z,98973.34
2022-09-28T20:26:37.799Z,98976.09
2022-09-28T20:29:39.193Z,98985.13
2022-09-28T20:32:40.620Z,98988.91
2022-09-28T20:35:44.234Z,98985.66
2022-09-28T20:38:48.264Z,98992.44
2022-09-28T20:41:49.669Z,98992.44
2022-09-28T20:44:51.108Z,98992.31
2022-09-28T20:47:52.596Z,98994.38
2022-09-28T20:51:02.713Z,98992.69
2022-09-28T20:54:04.800Z,98989.03
2022-09-28T20:57:17.178Z,98996.94
2022-09-28T21:00:18.674Z,99000.16
2022-09-28T21:03:20.068Z,99001.00
2022-09-28T21:06:23.960Z,98994.88
2022-09-28T21:09:25.413Z,98999.31
2022-09-28T21:12:29.410Z,98995.06
2022-09-28T21:15:30.850Z,98992.53
2022-09-28T21:18:32.374Z,98990.72
2022-09-28T21:21:33.840Z,98996.59
2022-09-28T21:24:35.306Z,98993.84
2022-09-28T21:27:36.789Z,98994.09
2022-09-28T21:30:39.517Z,98990.16
2022-09-28T21:33:40.912Z,98999.94
2022-09-28T21:36:43.400Z,98988.63
2022-09-28T21:39:44.850Z,98993.91
2022-09-28T21:42:46.371Z,98987.88
2022-09-28T21:45:51.988Z,98985.25
2022-09-28T21:48:53.704Z,98991.47
2022-09-28T21:51:55.120Z,98986.94
2022-09-28T21:54:56.522Z,98979.88
2022-09-28T21:57:57.905Z,98985.25
2022-09-28T22:01:10.934Z,98992.88
2022-09-28T22:04:12.337Z,98986.94
2022-09-28T22:07:13.852Z,98985.41
2022-09-28T22:10:15.337Z,98989.19
2022-09-28T22:13:17.153Z,98985.13
2022-09-28T22:16:21.491Z,98983.41
2022-09-28T22:19:22.926Z,98982.41
2022-09-28T22:22:28.415Z,98983.69
2022-09-28T22:25:30.485Z,98992.53
2022-09-28T22:28:31.879Z,98980.19
2022-09-28T22:31:36.496Z,98986.31
2022-09-28T22:34:37.959Z,98984.63
2022-09-28T22:37:39.343Z,98986.53
2022-09-28T22:40:51.813Z,98988.41
2022-09-28T22:43:54.485Z,98991.97
2022-09-28T22:46:55.904Z,98991.19
2022-09-28T22:49:57.456Z,98984.41
2022-09-28T22:52:58.840Z,98981.78
2022-09-28T22:56:01.457Z,98984.69
2022-09-28T22:59:02.954Z,98986.47
2022-09-28T23:02:04.487Z,98992.00
2022-09-28T23:05:06.872Z,98988.88
2022-09-28T23:08:08.250Z,98988.44
2022-09-28T23:11:09.805Z,98989.41
2022-09-28T23:14:12.451Z,98984.38
2022-09-28T23:17:13.854Z,98985.78
2022-09-28T23:20:15.344Z,98985.78
2022-09-28T23:23:16.737Z,98993.69
2022-09-28T23:26:21.009Z,98990.19
2022-09-28T23:29:22.399Z,98988.47
2022-09-28T23:32:26.536Z,98984.91
2022-09-28T23:35:29.995Z,98987.81
2022-09-28T23:38:31.485Z,98987.97
2022-09-28T23:41:32.993Z,98983.91
2022-09-28T23:44:34.408Z,98986.66
2022-09-28T23:47:37.261Z,98982.38
2022-09-28T23:50:38.650Z,98988.84
2022-09-28T23:53:40.042Z,98991.81
2022-09-28T23:56:41.514Z,98996.66
2022-09-28T23:59:42.880Z,98996.06
